sensor_id;sensor_type;location;lat;lon;timestamp;pressure;altitude;pressure_sealevel;temperature;humidity
63946;BME280;50122;56.330;43.838;2023-02-14T00:00:44;99457.00;;;-4.62;84.63
63946;BME280;50122;56.330;43.838;2023-02-14T00:03:12;99460.47;;;-4.59;85.10
63946;BME280;50122;56.330;43.838;2023-02-14T00:05:39;99463.06;;;-4.53;85.04
63946;BME280;50122;56.330;43.838;2023-02-14T00:08:06;99452.75;;;-4.57;84.95
63946;BME280;50122;56.330;43.838;2023-02-14T00:10:33;99452.75;;;-4.54;84.68
63946;BME280;50122;56.330;43.838;2023-02-14T00:12:59;99453.63;;;-4.49;85.32
63946;BME280;50122;56.330;43.838;2023-02-14T00:15:26;99447.59;;;-4.46;85.62
63946;BME280;50122;56.330;43.838;2023-02-14T00:17:55;99437.28;;;-4.54;85.58
63946;BME280;50122;56.330;43.838;2023-02-14T00:20:26;99432.13;;;-4.53;85.39
63946;BME280;50122;56.330;43.838;2023-02-14T00:22:53;99444.19;;;-4.48;84.97
63946;BME280;50122;56.330;43.838;2023-02-14T00:25:20;99437.28;;;-4.53;84.71
63946;BME280;50122;56.330;43.838;2023-02-14T00:27:47;99425.22;;;-4.55;85.00
63946;BME280;50122;56.330;43.838;2023-02-14T00:30:14;99438.16;;;-4.49;85.11
63946;BME280;50122;56.330;43.838;2023-02-14T00:32:41;99430.44;;;-4.52;85.04
63946;BME280;50122;56.330;43.838;2023-02-14T00:35:09;99421.81;;;-4.56;85.29
63946;BME280;50122;56.330;43.838;2023-02-14T00:37:35;99434.75;;;-4.43;85.20
63946;BME280;50122;56.330;43.838;2023-02-14T00:40:02;99434.75;;;-4.42;85.19
63946;BME280;50122;56.330;43.838;2023-02-14T00:42:30;99420.13;;;-4.43;85.19
63946;BME280;50122;56.330;43.838;2023-02-14T00:44:57;99421.84;;;-4.42;85.29
63946;BME280;50122;56.330;43.838;2023-02-14T00:47:23;99430.44;;;-4.43;85.36
63946;BME280;50122;56.330;43.838;2023-02-14T00:49:50;99418.41;;;-4.45;85.17
63946;BME280;50122;56.330;43.838;2023-02-14T00:52:16;99424.44;;;-4.42;85.09
63946;BME280;50122;56.330;43.838;2023-02-14T00:54:43;99421.81;;;-4.48;84.76
63946;BME280;50122;56.330;43.838;2023-02-14T00:57:10;99408.06;;;-4.56;84.38
63946;BME280;50122;56.330;43.838;2023-02-14T00:59:36;99430.44;;;-4.43;84.57
63946;BME280;50122;56.330;43.838;2023-02-14T01:02:03;99430.44;;;-4.46;84.64
63946;BME280;50122;56.330;43.838;2023-02-14T01:04:30;99423.53;;;-4.50;84.44
63946;BME280;50122;56.330;43.838;2023-02-14T01:06:57;99415.81;;;-4.53;84.87
63946;BME280;50122;56.330;43.838;2023-02-14T01:09:23;99433.03;;;-4.44;85.00
63946;BME280;50122;56.330;43.838;2023-02-14T01:11:50;99426.13;;;-4.45;85.02
63946;BME280;50122;56.330;43.838;2023-02-14T01:14:16;99429.59;;;-4.42;84.96
63946;BME280;50122;56.330;43.838;2023-02-14T01:16:43;99420.13;;;-4.47;84.91
63946;BME280;50122;56.330;43.838;2023-02-14T01:19:12;99431.28;;;-4.47;84.39
63946;BME280;50122;56.330;43.838;2023-02-14T01:21:38;99419.22;;;-4.53;84.66
63946;BME280;50122;56.330;43.838;2023-02-14T01:24:06;99429.56;;;-4.46;84.88
63946;BME280;50122;56.330;43.838;2023-02-14T01:26:34;99406.31;;;-4.59;84.85
63946;BME280;50122;56.330;43.838;2023-02-14T01:29:02;99429.56;;;-4.46;84.41
63946;BME280;50122;56.330;43.838;2023-02-14T01:31:31;99427.84;;;-4.47;84.95
63946;BME280;50122;56.330;43.838;2023-02-14T01:34:00;99420.06;;;-4.54;84.84
63946;BME280;50122;56.330;43.838;2023-02-14T01:36:32;99433.84;;;-4.50;85.00
63946;BME280;50122;56.330;43.838;2023-02-14T01:39:00;99401.13;;;-4.69;84.77
63946;BME280;50122;56.330;43.838;2023-02-14T01:41:30;99418.38;;;-4.56;85.15
63946;BME280;50122;56.330;43.838;2023-02-14T01:44:00;99415.78;;;-4.58;84.86
63946;BME280;50122;56.330;43.838;2023-02-14T01:46:30;99429.56;;;-4.49;85.11
63946;BME280;50122;56.330;43.838;2023-02-14T01:49:08;99439.03;;;-4.48;84.64
63946;BME280;50122;56.330;43.838;2023-02-14T01:51:40;99426.13;;;-4.53;84.86
63946;BME280;50122;56.330;43.838;2023-02-14T01:54:10;99439.03;;;-4.45;84.83
63946;BME280;50122;56.330;43.838;2023-02-14T01:56:40;99435.59;;;-4.49;84.75
63946;BME280;50122;56.330;43.838;2023-02-14T01:59:11;99439.84;;;-4.53;84.35
63946;BME280;50122;56.330;43.838;2023-02-14T02:01:41;99434.72;;;-4.49;84.62
63946;BME280;50122;56.330;43.838;2023-02-14T02:04:11;99444.19;;;-4.45;84.59
63946;BME280;50122;56.330;43.838;2023-02-14T02:06:44;99426.97;;;-4.51;84.45
63946;BME280;50122;56.330;43.838;2023-02-14T02:09:20;99403.75;;;-4.63;85.05
63946;BME280;50122;56.330;43.838;2023-02-14T02:11:47;99438.19;;;-4.41;84.86
63946;BME280;50122;56.330;43.838;2023-02-14T02:14:17;99433.03;;;-4.44;85.01
63946;BME280;50122;56.330;43.838;2023-02-14T02:16:57;99444.19;;;-4.44;84.76
63946;BME280;50122;56.330;43.838;2023-02-14T02:44:43;99453.66;;;-4.44;85.13
63946;BME280;50122;56.330;43.838;2023-02-14T02:47:31;99446.78;;;-4.42;84.99
63946;BME280;50122;56.330;43.838;2023-02-14T02:53:16;99444.19;;;-4.44;85.01
63946;BME280;50122;56.330;43.838;2023-02-14T02:55:49;99444.19;;;-4.39;85.39
63946;BME280;50122;56.330;43.838;2023-02-14T02:58:42;99465.72;;;-4.40;84.96
63946;BME280;50122;56.330;43.838;2023-02-14T03:01:13;99448.50;;;-4.40;84.99
63946;BME280;50122;56.330;43.838;2023-02-14T03:03:45;99432.13;;;-4.46;84.84
63946;BME280;50122;56.330;43.838;2023-02-14T03:06:33;99443.34;;;-4.43;84.70
63946;BME280;50122;56.330;43.838;2023-02-14T03:14:56;99454.50;;;-4.51;84.95
63946;BME280;50122;56.330;43.838;2023-02-14T03:17:51;99434.69;;;-4.60;84.58
63946;BME280;50122;56.330;43.838;2023-02-14T03:33:52;99469.16;;;-4.33;85.44
63946;BME280;50122;56.330;43.838;2023-02-14T03:36:34;99467.47;;;-4.30;85.45
63946;BME280;50122;56.330;43.838;2023-02-14T03:39:31;99464.88;;;-4.28;84.59
63946;BME280;50122;56.330;43.838;2023-02-14T03:42:20;99460.56;;;-4.29;85.27
63946;BME280;50122;56.330;43.838;2023-02-14T03:44:45;99454.56;;;-4.30;85.31
63946;BME280;50122;56.330;43.838;2023-02-14T03:47:17;99470.94;;;-4.20;84.79
63946;BME280;50122;56.330;43.838;2023-02-14T03:49:50;99471.78;;;-4.20;84.57
63946;BME280;50122;56.330;43.838;2023-02-14T17:53:16;100421.72;;;-5.69;86.02
63946;BME280;50122;56.330;43.838;2023-02-14T17:55:43;100423.41;;;-5.69;86.15
63946;BME280;50122;56.330;43.838;2023-02-14T17:58:10;100435.69;;;-5.58;86.53
63946;BME280;50122;56.330;43.838;2023-02-14T18:00:36;100439.28;;;-5.51;86.77
63946;BME280;50122;56.330;43.838;2023-02-14T18:06:27;100442.28;;;-5.34;87.08
63946;BME280;50122;56.330;43.838;2023-02-14T18:08:56;100452.66;;;-5.31;87.24
63946;BME280;50122;56.330;43.838;2023-02-14T18:11:26;100446.59;;;-5.33;87.58
63946;BME280;50122;56.330;43.838;2023-02-14T18:13:56;100450.91;;;-5.32;87.37
63946;BME280;50122;56.330;43.838;2023-02-14T18:16:39;100445.81;;;-5.29;87.66
63946;BME280;50122;56.330;43.838;2023-02-14T18:19:08;100456.19;;;-5.27;86.73
63946;BME280;50122;56.330;43.838;2023-02-14T18:21:36;100460.53;;;-5.23;87.32
63946;BME280;50122;56.330;43.838;2023-02-14T18:24:06;100457.91;;;-5.26;87.24
63946;BME280;50122;56.330;43.838;2023-02-14T18:26:35;100466.63;;;-5.21;86.65
63946;BME280;50122;56.330;43.838;2023-02-14T18:29:04;100461.34;;;-5.27;86.76
63946;BME280;50122;56.330;43.838;2023-02-14T18:31:37;100471.75;;;-5.22;86.84
63946;BME280;50122;56.330;43.838;2023-02-14T18:34:04;100475.19;;;-5.22;87.09
63946;BME280;50122;56.330;43.838;2023-02-14T18:36:34;100464.84;;;-5.24;87.12
63946;BME280;50122;56.330;43.838;2023-02-14T18:39:02;100483.25;;;-5.08;87.48
63946;BME280;50122;56.330;43.838;2023-02-14T18:41:29;100466.94;;;-5.06;87.55
63946;BME280;50122;56.330;43.838;2023-02-14T18:43:56;100470.59;;;-4.96;87.48
63946;BME280;50122;56.330;43.838;2023-02-14T18:46:28;100475.78;;;-4.94;87.52
63946;BME280;50122;56.330;43.838;2023-02-14T18:48:56;100474.09;;;-4.94;87.05
63946;BME280;50122;56.330;43.838;2023-02-14T18:51:25;100476.88;;;-4.84;86.90
63946;BME280;50122;56.330;43.838;2023-02-14T18:53:56;100482.19;;;-4.77;87.15
63946;BME280;50122;56.330;43.838;2023-02-14T18:56:27;100482.28;;;-4.74;86.54
63946;BME280;50122;56.330;43.838;2023-02-14T18:58:59;100486.59;;;-4.71;86.65
63946;BME280;50122;56.330;43.838;2023-02-14T19:01:34;100486.59;;;-4.71;86.49
63946;BME280;50122;56.330;43.838;2023-02-14T19:04:06;100490.03;;;-4.74;86.15
63946;BME280;50122;56.330;43.838;2023-02-14T19:06:35;100490.91;;;-4.72;86.22
63946;BME280;50122;56.330;43.838;2023-02-14T19:09:06;100494.28;;;-4.74;85.70
63946;BME280;50122;56.330;43.838;2023-02-14T19:11:33;100498.63;;;-4.72;85.67
63946;BME280;50122;56.330;43.838;2023-02-14T19:14:01;100498.63;;;-4.72;85.70
63946;BME280;50122;56.330;43.838;2023-02-14T19:16:30;100508.94;;;-4.73;85.56
63946;BME280;50122;56.330;43.838;2023-02-14T19:18:58;100506.25;;;-4.78;85.17
63946;BME280;50122;56.330;43.838;2023-02-14T19:21:33;100509.66;;;-4.79;85.40
63946;BME280;50122;56.330;43.838;2023-02-14T19:24:01;100500.03;;;-4.86;85.44
63946;BME280;50122;56.330;43.838;2023-02-14T19:26:31;100507.78;;;-4.86;85.73
63946;BME280;50122;56.330;43.838;2023-02-14T19:29:02;100510.38;;;-4.84;85.30
63946;BME280;50122;56.330;43.838;2023-02-14T19:31:33;100513.75;;;-4.87;85.34
63946;BME280;50122;56.330;43.838;2023-02-14T19:34:03;100530.13;;;-4.86;84.85
63946;BME280;50122;56.330;43.838;2023-02-14T19:36:34;100515.50;;;-4.86;85.57
63946;BME280;50122;56.330;43.838;2023-02-14T19:39:05;100523.16;;;-4.91;85.13
63946;BME280;50122;56.330;43.838;2023-02-14T19:41:32;100524.78;;;-4.94;85.05
63946;BME280;50122;56.330;43.838;2023-02-14T19:44:04;100524.78;;;-4.94;84.83
63946;BME280;50122;56.330;43.838;2023-02-14T19:46:31;100531.63;;;-4.96;84.94
63946;BME280;50122;56.330;43.838;2023-02-14T19:48:59;100536.75;;;-4.96;84.64
63946;BME280;50122;56.330;43.838;2023-02-14T19:51:36;100534.13;;;-4.99;85.26
63946;BME280;50122;56.330;43.838;2023-02-14T19:54:05;100528.81;;;-5.06;84.88
63946;BME280;50122;56.330;43.838;2023-02-14T19:56:35;100537.44;;;-5.05;84.52
63946;BME280;50122;56.330;43.838;2023-02-14T19:59:05;100536.47;;;-5.09;85.03
63946;BME280;50122;56.330;43.838;2023-02-14T20:02:23;100533.66;;;-5.19;84.83
63946;BME280;50122;56.330;43.838;2023-02-14T20:04:52;100533.38;;;-5.30;85.07
63946;BME280;50122;56.330;43.838;2023-02-14T20:07:24;100532.25;;;-5.42;84.54
63946;BME280;50122;56.330;43.838;2023-02-14T20:09:50;100534.84;;;-5.42;84.72
63946;BME280;50122;56.330;43.838;2023-02-14T20:12:20;100538.91;;;-5.50;84.47
63946;BME280;50122;56.330;43.838;2023-02-14T20:14:46;100523.06;;;-5.65;84.72
63946;BME280;50122;56.330;43.838;2023-02-14T20:17:17;100540.25;;;-5.64;84.25
63946;BME280;50122;56.330;43.838;2023-02-14T20:19:44;100536.59;;;-5.72;84.87
63946;BME280;50122;56.330;43.838;2023-02-14T20:22:14;100539.28;;;-5.68;84.67
63946;BME280;50122;56.330;43.838;2023-02-14T20:24:40;100537.59;;;-5.67;85.06
63946;BME280;50122;56.330;43.838;2023-02-14T20:27:08;100541.94;;;-5.65;85.84
63946;BME280;50122;56.330;43.838;2023-02-14T20:29:35;100542.16;;;-5.57;85.71
63946;BME280;50122;56.330;43.838;2023-02-14T20:32:04;100544.81;;;-5.54;85.94
63946;BME280;50122;56.330;43.838;2023-02-14T20:34:31;100552.72;;;-5.46;85.80
63946;BME280;50122;56.330;43.838;2023-02-14T20:36:57;100552.00;;;-5.41;86.20
63946;BME280;50122;56.330;43.838;2023-02-14T20:39:33;100555.56;;;-5.37;85.79
63946;BME280;50122;56.330;43.838;2023-02-14T20:42:05;100555.56;;;-5.37;86.39
63946;BME280;50122;56.330;43.838;2023-02-14T20:44:35;100554.75;;;-5.34;85.78
63946;BME280;50122;56.330;43.838;2023-02-14T20:47:02;100545.31;;;-5.34;85.78
63946;BME280;50122;56.330;43.838;2023-02-14T20:49:30;100547.06;;;-5.33;85.73
63946;BME280;50122;56.330;43.838;2023-02-14T20:51:57;100552.34;;;-5.28;85.64
63946;BME280;50122;56.330;43.838;2023-02-14T20:54:26;100542.00;;;-5.30;85.64
63946;BME280;50122;56.330;43.838;2023-02-14T20:56:53;100555.19;;;-5.16;85.82
63946;BME280;50122;56.330;43.838;2023-02-14T20:59:20;100550.97;;;-5.14;85.85
63946;BME280;50122;56.330;43.838;2023-02-14T21:01:53;100558.75;;;-5.11;85.91
63946;BME280;50122;56.330;43.838;2023-02-14T21:04:21;100557.16;;;-5.06;85.96
63946;BME280;50122;56.330;43.838;2023-02-14T21:06:48;100565.03;;;-5.01;86.01
63946;BME280;50122;56.330;43.838;2023-02-14T21:09:15;100564.19;;;-4.98;85.67
63946;BME280;50122;56.330;43.838;2023-02-14T21:11:43;100558.25;;;-4.96;85.36
63946;BME280;50122;56.330;43.838;2023-02-14T21:14:10;100555.66;;;-4.96;85.63
63946;BME280;50122;56.330;43.838;2023-02-14T21:16:41;100575.59;;;-4.89;85.41
63946;BME280;50122;56.330;43.838;2023-02-14T21:19:08;100575.66;;;-4.85;85.21
63946;BME280;50122;56.330;43.838;2023-02-14T21:21:36;100577.38;;;-4.86;85.10
63946;BME280;50122;56.330;43.838;2023-02-14T21:24:06;100561.69;;;-4.97;84.19
63946;BME280;50122;56.330;43.838;2023-02-14T21:26:33;100581.75;;;-4.83;84.67
63946;BME280;50122;56.330;43.838;2023-02-14T21:29:02;100579.91;;;-4.89;84.54
63946;BME280;50122;56.330;43.838;2023-02-14T21:31:29;100584.25;;;-4.86;84.73
63946;BME280;50122;56.330;43.838;2023-02-14T21:33:58;100590.28;;;-4.86;84.52
63946;BME280;50122;56.330;43.838;2023-02-14T21:36:27;100589.38;;;-4.88;84.48
63946;BME280;50122;56.330;43.838;2023-02-14T21:38:56;100592.91;;;-4.84;84.72
63946;BME280;50122;56.330;43.838;2023-02-14T21:41:28;100582.53;;;-4.86;84.31
63946;BME280;50122;56.330;43.838;2023-02-14T21:43:57;100589.56;;;-4.80;84.73
63946;BME280;50122;56.330;43.838;2023-02-14T21:46:27;100594.75;;;-4.79;84.81
63946;BME280;50122;56.330;43.838;2023-02-14T21:48:59;100586.13;;;-4.81;84.68
63946;BME280;50122;56.330;43.838;2023-02-14T21:51:46;100590.41;;;-4.80;84.55
63946;BME280;50122;56.330;43.838;2023-02-14T21:54:13;100587.00;;;-4.79;84.31
63946;BME280;50122;56.330;43.838;2023-02-14T21:56:41;100582.69;;;-4.80;84.17
63946;BME280;50122;56.330;43.838;2023-02-14T21:59:09;100589.66;;;-4.76;85.02
63946;BME280;50122;56.330;43.838;2023-02-14T22:01:38;100587.03;;;-4.77;84.29
63946;BME280;50122;56.330;43.838;2023-02-14T22:04:09;100584.56;;;-4.73;84.40
63946;BME280;50122;56.330;43.838;2023-02-14T22:06:38;100595.88;;;-4.67;84.30
63946;BME280;50122;56.330;43.838;2023-02-14T22:09:05;100602.84;;;-4.63;84.39
63946;BME280;50122;56.330;43.838;2023-02-14T22:11:33;100599.50;;;-4.59;84.48
63946;BME280;50122;56.330;43.838;2023-02-14T22:14:00;100610.78;;;-4.54;84.47
63946;BME280;50122;56.330;43.838;2023-02-14T22:16:27;100595.22;;;-4.59;83.74
63946;BME280;50122;56.330;43.838;2023-02-14T22:18:53;100598.56;;;-4.63;82.78
63946;BME280;50122;56.330;43.838;2023-02-14T22:21:23;100608.03;;;-4.62;82.95
63946;BME280;50122;56.330;43.838;2023-02-14T22:23:50;100605.38;;;-4.66;82.00
63946;BME280;50122;56.330;43.838;2023-02-14T22:28:54;100614.69;;;-4.72;81.84
63946;BME280;50122;56.330;43.838;2023-02-14T22:31:23;100618.84;;;-4.77;81.71
63946;BME280;50122;56.330;43.838;2023-02-14T22:33:50;100616.00;;;-4.89;81.16
63946;BME280;50122;56.330;43.838;2023-02-14T22:36:17;100615.69;;;-5.01;80.93
63946;BME280;50122;56.330;43.838;2023-02-14T22:38:44;100614.75;;;-5.05;80.85
63946;BME280;50122;56.330;43.838;2023-02-14T22:41:16;100616.31;;;-5.10;81.30
63946;BME280;50122;56.330;43.838;2023-02-14T22:43:44;100614.53;;;-5.13;81.64
63946;BME280;50122;56.330;43.838;2023-02-14T22:46:20;100627.56;;;-5.08;81.82
63946;BME280;50122;56.330;43.838;2023-02-14T22:48:48;100618.97;;;-5.07;82.26
63946;BME280;50122;56.330;43.838;2023-02-14T22:51:37;100623.34;;;-5.04;82.34
63946;BME280;50122;56.330;43.838;2023-02-14T22:54:09;100631.09;;;-5.03;82.68
63946;BME280;50122;56.330;43.838;2023-02-14T22:56:45;100631.09;;;-5.03;82.21
63946;BME280;50122;56.330;43.838;2023-02-14T22:59:21;100638.13;;;-4.97;82.84
63946;BME280;50122;56.330;43.838;2023-02-14T23:01:49;100623.44;;;-5.00;82.36
63946;BME280;50122;56.330;43.838;2023-02-14T23:04:19;100625.19;;;-4.99;82.70
63946;BME280;50122;56.330;43.838;2023-02-14T23:06:47;100632.16;;;-4.96;82.62
63946;BME280;50122;56.330;43.838;2023-02-14T23:09:14;100627.91;;;-4.93;82.88
63946;BME280;50122;56.330;43.838;2023-02-14T23:11:42;100628.63;;;-4.98;82.51
63946;BME280;50122;56.330;43.838;2023-02-14T23:14:11;100638.34;;;-4.90;82.56
63946;BME280;50122;56.330;43.838;2023-02-14T23:16:57;100647.06;;;-4.83;82.77
63946;BME280;50122;56.330;43.838;2023-02-14T23:19:42;100651.47;;;-4.79;82.68
63946;BME280;50122;56.330;43.838;2023-02-14T23:22:37;100652.34;;;-4.78;82.51
63946;BME280;50122;56.330;43.838;2023-02-14T23:25:09;100644.56;;;-4.80;82.29
63946;BME280;50122;56.330;43.838;2023-02-14T23:27:42;100659.28;;;-4.76;82.08
63946;BME280;50122;56.330;43.838;2023-02-14T23:30:12;100654.09;;;-4.77;82.08
63946;BME280;50122;56.330;43.838;2023-02-14T23:32:41;100655.69;;;-4.82;82.05
63946;BME280;50122;56.330;43.838;2023-02-14T23:35:11;100661.75;;;-4.80;82.08
63946;BME280;50122;56.330;43.838;2023-02-14T23:37:37;100667.81;;;-4.78;81.86
63946;BME280;50122;56.330;43.838;2023-02-14T23:40:05;100663.47;;;-4.81;82.28
63946;BME280;50122;56.330;43.838;2023-02-14T23:42:32;100661.75;;;-4.80;81.88
63946;BME280;50122;56.330;43.838;2023-02-14T23:44:58;100661.78;;;-4.79;81.98
63946;BME280;50122;56.330;43.838;2023-02-14T23:47:46;100654.75;;;-4.86;81.62
63946;BME280;50122;56.330;43.838;2023-02-14T23:50:13;100662.53;;;-4.83;82.25
63946;BME280;50122;56.330;43.838;2023-02-14T23:52:39;100661.69;;;-4.83;81.77
63946;BME280;50122;56.330;43.838;2023-02-14T23:55:07;100668.69;;;-4.78;81.82
63946;BME280;50122;56.330;43.838;2023-02-14T23:57:35;100657.41;;;-4.81;81.35
